createdAt,value
2023-04-24T00:01:35.154Z,13.45
2023-04-24T00:04:41.258Z,13.41
2023-04-24T00:07:45.935Z,13.35
2023-04-24T00:10:50.190Z,13.30
2023-04-24T00:13:53.015Z,13.26
2023-04-24T00:16:55.758Z,13.39
2023-04-24T00:20:00.136Z,13.41
2023-04-24T00:23:02.940Z,13.44
2023-04-24T00:26:07.102Z,13.38
2023-04-24T00:29:09.994Z,13.37
2023-04-24T00:32:12.924Z,13.47
2023-04-24T00:35:15.980Z,13.43
2023-04-24T00:38:18.665Z,13.49
2023-04-24T00:41:22.952Z,13.45
2023-04-24T00:44:25.887Z,13.47
2023-04-24T00:47:29.016Z,13.45
2023-04-24T00:50:31.958Z,13.52
2023-04-24T00:53:34.678Z,13.59
2023-04-24T00:56:38.924Z,13.63
2023-04-24T00:59:42.161Z,13.63
2023-04-24T01:02:46.575Z,13.73
2023-04-24T01:05:49.840Z,13.67
2023-04-24T01:08:52.630Z,13.67
2023-04-24T01:11:57.598Z,13.58
2023-04-24T01:15:00.379Z,13.63
2023-04-24T01:18:03.444Z,13.68
2023-04-24T01:21:07.170Z,13.62
2023-04-24T01:24:11.255Z,13.62
2023-04-24T01:27:14.467Z,13.64
2023-04-24T01:30:17.150Z,13.57
2023-04-24T01:33:21.506Z,13.55
2023-04-24T01:36:27.218Z,13.58
2023-04-24T01:39:31.366Z,13.44
2023-04-24T01:42:34.291Z,13.52
2023-04-24T01:45:37.088Z,13.45
2023-04-24T01:48:39.916Z,13.43
2023-04-24T01:51:42.606Z,13.41
2023-04-24T01:54:46.994Z,13.50
2023-04-24T01:57:49.709Z,13.40
2023-04-24T02:00:52.512Z,13.39
2023-04-24T02:03:55.300Z,13.43
2023-04-24T02:06:58.017Z,13.31
2023-04-24T02:10:02.275Z,13.40
2023-04-24T02:13:05.744Z,13.41
2023-04-24T02:16:08.482Z,13.43
2023-04-24T02:19:11.420Z,13.37
2023-04-24T02:22:14.238Z,13.31
2023-04-24T02:25:18.729Z,13.22
2023-04-24T02:28:21.596Z,13.24
2023-04-24T02:31:24.324Z,13.21
2023-04-24T02:34:27.140Z,13.23
2023-04-24T02:37:29.841Z,13.29
2023-04-24T02:40:34.174Z,13.26
2023-04-24T02:43:36.847Z,13.22
2023-04-24T02:46:39.571Z,13.21
2023-04-24T02:49:43.273Z,13.29
2023-04-24T02:52:46.374Z,13.23
2023-04-24T02:55:50.320Z,13.08
2023-04-24T02:58:53.026Z,13.18
2023-04-24T03:01:55.666Z,13.17
2023-04-24T03:04:58.395Z,13.13
2023-04-24T03:08:01.531Z,13.06
2023-04-24T03:11:05.849Z,13.03
2023-04-24T03:14:08.562Z,13.01
2023-04-24T03:17:11.232Z,12.96
2023-04-24T03:20:14.040Z,12.88
2023-04-24T03:23:17.133Z,12.84
2023-04-24T03:26:21.297Z,12.90
2023-04-24T03:29:24.167Z,12.81
2023-04-24T03:32:26.916Z,12.83
2023-04-24T03:35:29.770Z,12.79
2023-04-24T03:38:32.635Z,12.70
2023-04-24T03:41:36.662Z,12.70
2023-04-24T03:44:39.392Z,12.72
2023-04-24T03:47:42.101Z,12.70
2023-04-24T03:50:44.783Z,12.63
2023-04-24T03:53:47.426Z,12.51
2023-04-24T03:56:51.489Z,12.50
2023-04-24T03:59:54.536Z,12.45
2023-04-24T04:02:57.384Z,12.36
2023-04-24T04:06:00.309Z,12.51
2023-04-24T04:09:03.174Z,12.58
2023-04-24T04:12:07.264Z,12.56
2023-04-24T04:15:10.454Z,12.45
2023-04-24T04:18:13.210Z,12.41
2023-04-24T04:21:16.270Z,12.53
2023-04-24T04:24:18.932Z,12.55
2023-04-24T04:27:23.162Z,12.42
2023-04-24T04:30:26.872Z,12.18
2023-04-24T04:33:29.592Z,12.04
2023-04-24T04:36:32.321Z,11.97
2023-04-24T04:39:35.033Z,11.98
2023-04-24T04:42:41.316Z,12.02
2023-04-24T04:45:45.960Z,12.05
2023-04-24T04:48:48.724Z,12.00
2023-04-24T04:51:51.764Z,11.93
2023-04-24T04:54:54.572Z,11.90
2023-04-24T04:57:58.592Z,11.91
2023-04-24T05:01:01.422Z,11.86
2023-04-24T05:04:04.371Z,11.77
2023-04-24T05:07:07.527Z,11.76
2023-04-24T05:10:11.456Z,11.74
2023-04-24T05:13:17.838Z,11.77
2023-04-24T05:16:23.606Z,11.68
2023-04-24T05:19:26.329Z,11.73
2023-04-24T05:22:29.053Z,11.71
2023-04-24T05:25:33.200Z,11.72
2023-04-24T05:28:37.829Z,11.64
2023-04-24T05:31:41.132Z,11.68
2023-04-24T05:34:43.974Z,11.76
2023-04-24T05:37:46.629Z,11.81
2023-04-24T05:40:49.384Z,11.87
2023-04-24T05:43:53.691Z,11.82
2023-04-24T05:46:56.831Z,11.79
2023-04-24T05:49:59.606Z,11.82
2023-04-24T05:53:03.096Z,11.78
2023-04-24T05:56:06.329Z,11.73
2023-04-24T05:59:10.608Z,11.77
2023-04-24T06:02:13.370Z,11.81
2023-04-24T06:05:16.897Z,11.77
2023-04-24T06:08:19.644Z,11.75
2023-04-24T06:11:22.374Z,11.72
2023-04-24T06:14:26.400Z,11.71
2023-04-24T06:17:29.090Z,11.73
2023-04-24T06:20:31.923Z,11.89
2023-04-24T06:23:34.672Z,12.14
2023-04-24T06:26:37.580Z,12.39
2023-04-24T06:29:41.875Z,12.58
2023-04-24T06:32:44.807Z,12.77
2023-04-24T06:35:47.680Z,12.75
2023-04-24T06:38:50.663Z,12.81
2023-04-24T06:41:53.407Z,13.22
2023-04-24T06:44:57.467Z,13.79
2023-04-24T06:48:00.427Z,14.17
2023-04-24T06:51:03.133Z,14.74
2023-04-24T06:54:06.104Z,14.85
2023-04-24T06:57:08.925Z,14.78
2023-04-24T07:00:14.767Z,14.86
2023-04-24T07:03:17.496Z,14.81
2023-04-24T07:06:23.556Z,14.85
2023-04-24T07:09:27.410Z,14.68
2023-04-24T07:12:30.422Z,14.43
2023-04-24T07:15:34.954Z,14.10
2023-04-24T07:18:38.352Z,13.82
2023-04-24T07:21:41.108Z,13.57
2023-04-24T07:24:44.167Z,13.43
2023-04-24T07:27:46.962Z,13.40
2023-04-24T07:30:51.068Z,13.57
2023-04-24T07:33:53.772Z,13.93
2023-04-24T07:36:56.624Z,14.01
2023-04-24T07:39:59.332Z,14.01
2023-04-24T07:43:01.984Z,14.31
2023-04-24T07:46:07.788Z,14.45
2023-04-24T07:49:14.144Z,14.45
2023-04-24T07:52:17.340Z,14.65
2023-04-24T07:55:23.273Z,14.92
2023-04-24T07:58:27.021Z,15.00
2023-04-24T08:01:31.517Z,14.72
2023-04-24T08:04:34.414Z,14.70
2023-04-24T08:07:37.296Z,14.66
2023-04-24T08:10:40.104Z,14.57
2023-04-24T08:13:42.801Z,14.61
2023-04-24T08:16:47.070Z,14.55
2023-04-24T08:19:50.667Z,14.40
2023-04-24T08:22:53.480Z,14.13
2023-04-24T08:25:56.200Z,13.88
2023-04-24T08:28:58.999Z,13.77
2023-04-24T08:32:03.075Z,13.52
2023-04-24T08:35:06.478Z,13.58
2023-04-24T08:38:09.068Z,13.67
2023-04-24T08:41:11.826Z,13.65
2023-04-24T08:44:16.582Z,13.53
2023-04-24T08:47:22.423Z,13.42
2023-04-24T08:50:25.249Z,13.37
2023-04-24T08:53:28.636Z,13.49
2023-04-24T08:56:32.932Z,13.55
2023-04-24T08:59:37.359Z,13.61
2023-04-24T09:02:45.131Z,13.80
2023-04-24T09:05:50.539Z,13.80
2023-04-24T09:08:56.824Z,13.84
2023-04-24T09:12:00.468Z,13.82
2023-04-24T09:15:05.075Z,13.61
2023-04-24T09:18:09.313Z,13.39
2023-04-24T09:21:12.394Z,13.06
2023-04-24T09:24:19.316Z,12.94
2023-04-24T09:27:25.795Z,12.81
2023-04-24T09:30:28.660Z,12.81
2023-04-24T09:33:32.845Z,12.87
2023-04-24T09:36:38.125Z,12.93
2023-04-24T09:39:45.055Z,13.30
2023-04-24T09:42:53.435Z,13.89
2023-04-24T09:45:59.600Z,14.18
2023-04-24T09:49:10.262Z,14.15
2023-04-24T09:52:13.723Z,14.06
2023-04-24T09:55:21.293Z,14.09
2023-04-24T09:58:28.737Z,14.38
2023-04-24T10:01:33.356Z,14.44
2023-04-24T10:04:38.443Z,14.43
2023-04-24T10:07:41.699Z,14.50
2023-04-24T10:10:46.685Z,14.84
2023-04-24T10:13:49.932Z,15.15
2023-04-24T10:16:57.574Z,15.24
2023-04-24T10:20:03.194Z,15.36
2023-04-24T10:23:07.245Z,15.18
2023-04-24T10:26:11.534Z,14.90
2023-04-24T10:29:16.600Z,14.77
2023-04-24T10:32:19.448Z,14.44
2023-04-24T10:35:27.915Z,14.12
2023-04-24T10:38:32.763Z,13.87
2023-04-24T10:41:36.103Z,13.67
2023-04-24T10:44:38.917Z,13.55
2023-04-24T10:47:43.329Z,13.52
2023-04-24T10:50:49.306Z,13.53
2023-04-24T10:53:52.631Z,13.52
2023-04-24T10:57:15.803Z,13.51
2023-04-24T11:00:22.923Z,13.57
2023-04-24T11:03:30.281Z,13.53
2023-04-24T11:06:37.032Z,13.44
2023-04-24T11:09:41.632Z,13.37
2023-04-24T11:12:45.948Z,13.44
2023-04-24T11:16:16.166Z,13.56
2023-04-24T11:19:26.203Z,13.59
2023-04-24T11:22:35.144Z,13.72
2023-04-24T11:25:38.083Z,14.01
2023-04-24T11:28:47.105Z,14.26
2023-04-24T11:31:52.227Z,14.36
2023-04-24T11:34:57.189Z,14.42
2023-04-24T11:38:22.682Z,14.41
2023-04-24T11:41:27.429Z,14.33
2023-04-24T11:44:32.832Z,14.17
2023-04-24T11:47:35.794Z,13.94
2023-04-24T11:50:38.744Z,13.87
2023-04-24T11:53:43.574Z,13.95
2023-04-24T11:56:48.926Z,14.14
2023-04-24T11:59:52.069Z,14.43
2023-04-24T12:03:07.808Z,14.79
2023-04-24T12:06:13.046Z,15.29
2023-04-24T12:09:18.550Z,15.41
2023-04-24T12:12:21.469Z,15.24
2023-04-24T12:15:24.902Z,15.02
2023-04-24T12:18:28.346Z,14.62
2023-04-24T12:21:32.944Z,14.42
2023-04-24T12:24:37.221Z,14.38
2023-04-24T12:27:40.228Z,14.43
2023-04-24T12:30:45.712Z,14.39
2023-04-24T12:33:48.867Z,14.29
2023-04-24T12:36:51.556Z,14.14
2023-04-24T12:40:03.148Z,14.02
2023-04-24T12:43:16.013Z,14.08
2023-04-24T12:46:20.560Z,14.08
2023-04-24T12:49:25.411Z,14.06
2023-04-24T12:52:29.205Z,14.02
2023-04-24T12:55:33.434Z,13.93
2023-04-24T12:58:36.261Z,13.85
2023-04-24T13:01:39.259Z,13.81
2023-04-24T13:04:42.078Z,13.99
2023-04-24T13:07:44.988Z,14.23
2023-04-24T13:10:49.255Z,14.47
2023-04-24T13:13:54.890Z,14.52
2023-04-24T13:16:58.247Z,14.48
2023-04-24T13:20:01.412Z,14.35
2023-04-24T13:23:04.471Z,14.23
2023-04-24T13:26:08.610Z,14.15
2023-04-24T13:29:11.857Z,14.17
2023-04-24T13:32:15.007Z,14.00
2023-04-24T13:35:18.165Z,13.96
2023-04-24T13:38:22.505Z,13.84
2023-04-24T13:41:26.927Z,13.78
2023-04-24T13:44:29.806Z,13.69
2023-04-24T13:47:32.860Z,13.76
2023-04-24T13:50:35.743Z,13.86
2023-04-24T13:53:39.704Z,14.10
2023-04-24T13:56:44.117Z,14.14
2023-04-24T13:59:47.357Z,14.29
2023-04-24T14:02:50.498Z,14.35
2023-04-24T14:05:53.406Z,14.40
2023-04-24T14:08:56.463Z,14.48
2023-04-24T14:12:02.064Z,14.58
2023-04-24T14:15:06.055Z,14.44
2023-04-24T14:18:09.103Z,14.41
2023-04-24T14:21:12.041Z,14.72
2023-04-24T14:24:14.912Z,15.00
2023-04-24T14:27:19.192Z,15.08
2023-04-24T14:30:22.206Z,15.22
2023-04-24T14:33:25.132Z,15.17
2023-04-24T14:36:27.874Z,14.89
2023-04-24T14:39:30.781Z,14.73
2023-04-24T14:42:35.432Z,14.62
2023-04-24T14:45:39.222Z,14.48
2023-04-24T14:48:42.314Z,14.42
2023-04-24T14:51:45.072Z,14.37
2023-04-24T14:54:47.932Z,14.34
2023-04-24T14:57:52.324Z,14.51
2023-04-24T15:00:55.563Z,14.87
2023-04-24T15:03:58.827Z,15.10
2023-04-24T15:07:01.845Z,15.11
2023-04-24T15:10:05.564Z,14.87
2023-04-24T15:13:10.095Z,14.54
2023-04-24T15:16:13.078Z,14.30
2023-04-24T15:19:15.939Z,14.13
2023-04-24T15:22:18.782Z,13.97
2023-04-24T15:25:21.609Z,13.83
2023-04-24T15:28:26.937Z,13.75
2023-04-24T15:31:29.798Z,13.55
2023-04-24T15:34:33.094Z,13.43
2023-04-24T15:37:36.013Z,13.45
2023-04-24T15:40:39.103Z,13.66
2023-04-24T15:43:44.117Z,13.79
2023-04-24T15:46:46.898Z,13.86
2023-04-24T15:49:49.663Z,13.91
2023-04-24T15:52:52.381Z,13.86
2023-04-24T15:55:57.172Z,14.05
2023-04-24T15:59:01.513Z,14.14
2023-04-24T16:02:04.971Z,14.25
2023-04-24T16:05:08.883Z,14.32
2023-04-24T16:08:11.682Z,14.56
2023-04-24T16:11:14.416Z,14.85
2023-04-24T16:14:18.479Z,14.92
2023-04-24T16:17:21.230Z,15.00
2023-04-24T16:20:24.139Z,14.92
2023-04-24T16:23:27.109Z,14.81
2023-04-24T16:26:29.880Z,14.82
2023-04-24T16:29:34.043Z,14.72
2023-04-24T16:32:36.866Z,14.69
2023-04-24T16:35:39.864Z,14.78
2023-04-24T16:38:43.517Z,14.76
2023-04-24T16:41:47.030Z,14.64
2023-04-24T16:44:52.106Z,14.64
2023-04-24T16:48:04.473Z,14.58
2023-04-24T16:51:08.483Z,14.50
2023-04-24T16:54:11.857Z,14.37
2023-04-24T16:57:16.274Z,14.27
2023-04-24T17:00:20.846Z,14.28
2023-04-24T17:03:23.913Z,14.22
2023-04-24T17:06:26.785Z,14.18
2023-04-24T17:09:29.640Z,14.16
2023-04-24T17:12:32.449Z,14.15
2023-04-24T17:15:36.602Z,14.12
2023-04-24T17:18:39.520Z,14.13
2023-04-24T17:21:42.511Z,13.96
2023-04-24T17:24:45.402Z,13.85
2023-04-24T17:27:48.374Z,13.79
2023-04-24T17:30:54.543Z,13.72
2023-04-24T17:33:57.641Z,13.58
2023-04-24T17:37:00.531Z,13.45
2023-04-24T17:40:04.307Z,13.41
2023-04-24T17:43:07.118Z,13.37
2023-04-24T17:46:11.301Z,13.34
2023-04-24T17:49:14.122Z,13.20
2023-04-24T17:52:17.715Z,13.11
2023-04-24T17:55:20.920Z,13.12
2023-04-24T17:58:23.801Z,13.20
2023-04-24T18:01:29.105Z,13.13
2023-04-24T18:04:32.118Z,13.09
2023-04-24T18:07:35.057Z,13.02
2023-04-24T18:10:38.035Z,12.99
2023-04-24T18:13:42.054Z,12.88
2023-04-24T18:16:46.393Z,12.79
2023-04-24T18:19:49.241Z,12.78
2023-04-24T18:22:51.993Z,12.71
2023-04-24T18:25:55.297Z,12.72
2023-04-24T18:28:58.099Z,12.73
2023-04-24T18:32:04.908Z,12.74
2023-04-24T18:35:08.279Z,12.75
2023-04-24T18:38:11.189Z,12.68
2023-04-24T18:41:14.540Z,12.74
2023-04-24T18:44:17.295Z,12.67
2023-04-24T18:47:21.867Z,12.62
2023-04-24T18:50:25.724Z,12.58
2023-04-24T18:53:28.546Z,12.50
2023-04-24T18:56:31.378Z,12.51
2023-04-24T18:59:34.212Z,12.50
2023-04-24T19:02:38.624Z,12.51
2023-04-24T19:05:41.481Z,12.51
2023-04-24T19:08:44.899Z,12.49
2023-04-24T19:11:47.746Z,12.44
2023-04-24T19:14:51.546Z,12.43
2023-04-24T19:17:55.774Z,12.44
2023-04-24T19:20:59.025Z,12.41
2023-04-24T19:24:02.121Z,12.39
2023-04-24T19:27:04.844Z,12.32
2023-04-24T19:30:08.972Z,12.19
2023-04-24T19:33:13.213Z,12.12
2023-04-24T19:36:17.742Z,12.00
2023-04-24T19:39:20.593Z,11.94
2023-04-24T19:42:35.905Z,11.84
2023-04-24T19:45:45.331Z,11.78
2023-04-24T19:48:49.893Z,11.79
2023-04-24T19:51:52.872Z,11.82
2023-04-24T19:54:56.084Z,11.82
2023-04-24T19:57:58.823Z,11.82
2023-04-24T20:01:01.901Z,11.94
2023-04-24T20:04:07.756Z,11.87
2023-04-24T20:07:10.890Z,11.81
2023-04-24T20:10:13.701Z,11.78
2023-04-24T20:13:16.641Z,11.85
2023-04-24T20:16:19.594Z,11.88
2023-04-24T20:19:23.780Z,11.87
2023-04-24T20:22:26.661Z,11.84
2023-04-24T20:25:29.451Z,11.77
2023-04-24T20:28:32.112Z,11.65
2023-04-24T20:31:34.900Z,11.48
2023-04-24T20:34:38.922Z,11.38
2023-04-24T20:37:42.395Z,11.27
2023-04-24T20:40:57.112Z,11.19
2023-04-24T20:44:01.583Z,11.02
2023-04-24T20:47:04.838Z,10.95
2023-04-24T20:50:10.382Z,10.94
2023-04-24T20:53:13.212Z,10.89
2023-04-24T20:56:16.445Z,10.99
2023-04-24T20:59:19.216Z,11.07
2023-04-24T21:02:22.103Z,11.05
2023-04-24T21:05:26.197Z,10.95
2023-04-24T21:08:29.268Z,10.88
2023-04-24T21:11:32.137Z,10.82
2023-04-24T21:14:34.961Z,10.71
2023-04-24T21:17:37.877Z,10.73
2023-04-24T21:20:41.973Z,10.71
2023-04-24T21:23:44.770Z,10.62
2023-04-24T21:26:47.828Z,10.57
2023-04-24T21:29:50.767Z,10.52
2023-04-24T21:32:53.943Z,10.42
2023-04-24T21:35:58.215Z,10.18
2023-04-24T21:39:00.951Z,10.06
2023-04-24T21:42:03.875Z,9.99
2023-04-24T21:45:07.651Z,9.94
2023-04-24T21:48:10.766Z,9.93
2023-04-24T21:51:16.614Z,9.88
2023-04-24T21:54:20.500Z,9.81
2023-04-24T21:57:23.182Z,9.80
2023-04-24T22:00:26.072Z,9.82
2023-04-24T22:03:29.734Z,9.82
2023-04-24T22:06:34.919Z,9.81
2023-04-24T22:09:37.576Z,9.80
2023-04-24T22:12:40.346Z,9.82
2023-04-24T22:15:43.059Z,9.90
2023-04-24T22:18:47.707Z,9.94
2023-04-24T22:21:52.045Z,9.92
2023-04-24T22:24:55.642Z,9.88
2023-04-24T22:27:58.288Z,9.92
2023-04-24T22:31:01.245Z,9.88
2023-04-24T22:34:04.074Z,9.85
2023-04-24T22:37:08.820Z,9.89
2023-04-24T22:40:12.405Z,9.90
2023-04-24T22:43:15.220Z,9.94
2023-04-24T22:46:18.362Z,9.92
2023-04-24T22:49:21.548Z,10.00
2023-04-24T22:52:26.196Z,10.01
2023-04-24T22:55:29.236Z,9.98
2023-04-24T22:58:32.034Z,10.06
2023-04-24T23:01:34.745Z,10.06
2023-04-24T23:04:37.549Z,10.02
2023-04-24T23:07:41.836Z,10.08
2023-04-24T23:10:44.629Z,10.06
2023-04-24T23:13:47.518Z,10.04
2023-04-24T23:16:50.444Z,10.04
2023-04-24T23:19:53.155Z,9.95
2023-04-24T23:22:57.454Z,10.02
2023-04-24T23:26:00.868Z,10.12
2023-04-24T23:29:03.665Z,10.29
2023-04-24T23:32:06.895Z,10.37
2023-04-24T23:35:10.395Z,10.32
2023-04-24T23:38:14.411Z,10.39
2023-04-24T23:41:17.085Z,10.44
2023-04-24T23:44:19.834Z,10.37
2023-04-24T23:47:22.728Z,10.34
2023-04-24T23:50:25.932Z,10.27
2023-04-24T23:53:30.655Z,10.20
2023-04-24T23:56:33.354Z,10.21
2023-04-24T23:59:36.426Z,10.20
